Virginia Water, United Kingdom
Current Conditions -  °F | °C
As of 12:50 PM on Thursday 30 Oct 2014 (Local Time) from EGLL Reporting Station
Broken Clouds Broken Clouds  
Wind Chill: 63°   Ceiling: 1400
Heat Index: 63°   Visibility: 6mi
Dew Point: 57°   Wind: 6mph
Humidity: 82%   Direction: 240°WSW
Pressure: 30.06"   Gusts: NA
Location:  51.4°N, 0.56°W
Report Text: EGLL 301250Z 24005KT 190V330 9000 BKN014 17/14 Q1018 BECMG BKN016
Loading
Personal Weather Stations






























Interactive Weather Map
Tropical Storm Tracking
New forecast layout! Learn more

10-Day Weather Forecast

Advertisements
Track Severe Weather on mobile